sensor_id;sensor_type;location;lat;lon;timestamp;P1;durP1;ratioP1;P2;durP2;ratioP2
73296;SDS011;61524;50.938;11.396;2022-08-21T00:01:02;8.75;;;5.95;;
73296;SDS011;61524;50.938;11.396;2022-08-21T00:03:31;9.93;;;6.45;;
73296;SDS011;61524;50.938;11.396;2022-08-21T00:05:57;9.05;;;6.55;;
73296;SDS011;61524;50.938;11.396;2022-08-21T00:08:23;10.13;;;6.45;;
73296;SDS011;61524;50.938;11.396;2022-08-21T00:10:49;11.68;;;7.00;;
73296;SDS011;61524;50.938;11.396;2022-08-21T00:13:15;9.77;;;6.88;;
73296;SDS011;61524;50.938;11.396;2022-08-21T00:15:42;12.10;;;7.55;;
73296;SDS011;61524;50.938;11.396;2022-08-21T00:18:10;10.15;;;7.40;;
73296;SDS011;61524;50.938;11.396;2022-08-21T00:20:36;11.32;;;7.30;;
73296;SDS011;61524;50.938;11.396;2022-08-21T00:23:03;10.75;;;7.07;;
73296;SDS011;61524;50.938;11.396;2022-08-21T00:25:28;10.23;;;6.93;;
73296;SDS011;61524;50.938;11.396;2022-08-21T00:27:55;9.90;;;7.07;;
73296;SDS011;61524;50.938;11.396;2022-08-21T00:30:21;12.23;;;7.28;;
73296;SDS011;61524;50.938;11.396;2022-08-21T00:32:48;10.32;;;6.95;;
73296;SDS011;61524;50.938;11.396;2022-08-21T00:35:16;10.38;;;7.32;;
73296;SDS011;61524;50.938;11.396;2022-08-21T00:37:43;9.48;;;6.57;;
73296;SDS011;61524;50.938;11.396;2022-08-21T00:40:12;11.18;;;7.00;;
73296;SDS011;61524;50.938;11.396;2022-08-21T00:42:39;9.07;;;5.75;;
73296;SDS011;61524;50.938;11.396;2022-08-21T00:45:05;9.93;;;6.75;;
73296;SDS011;61524;50.938;11.396;2022-08-21T00:49:56;11.20;;;6.63;;
73296;SDS011;61524;50.938;11.396;2022-08-21T00:52:24;9.15;;;6.75;;
73296;SDS011;61524;50.938;11.396;2022-08-21T00:54:53;9.32;;;6.78;;
73296;SDS011;61524;50.938;11.396;2022-08-21T00:57:21;9.20;;;5.90;;
73296;SDS011;61524;50.938;11.396;2022-08-21T00:59:51;11.68;;;7.75;;
73296;SDS011;61524;50.938;11.396;2022-08-21T01:02:21;9.65;;;6.35;;
73296;SDS011;61524;50.938;11.396;2022-08-21T01:04:47;10.02;;;7.25;;
73296;SDS011;61524;50.938;11.396;2022-08-21T01:07:13;9.80;;;6.32;;
73296;SDS011;61524;50.938;11.396;2022-08-21T01:09:39;10.90;;;7.25;;
73296;SDS011;61524;50.938;11.396;2022-08-21T01:12:05;11.35;;;7.07;;
73296;SDS011;61524;50.938;11.396;2022-08-21T01:14:31;10.50;;;7.03;;
73296;SDS011;61524;50.938;11.396;2022-08-21T01:16:58;10.52;;;7.30;;
73296;SDS011;61524;50.938;11.396;2022-08-21T01:19:25;12.38;;;7.47;;
73296;SDS011;61524;50.938;11.396;2022-08-21T01:21:51;11.18;;;7.43;;
73296;SDS011;61524;50.938;11.396;2022-08-21T01:24:18;11.15;;;6.70;;
73296;SDS011;61524;50.938;11.396;2022-08-21T01:26:44;12.35;;;7.35;;
73296;SDS011;61524;50.938;11.396;2022-08-21T01:31:55;10.65;;;6.50;;
73296;SDS011;61524;50.938;11.396;2022-08-21T01:36:47;11.43;;;6.80;;
73296;SDS011;61524;50.938;11.396;2022-08-21T01:39:13;10.73;;;7.30;;
73296;SDS011;61524;50.938;11.396;2022-08-21T01:44:05;12.65;;;7.55;;
73296;SDS011;61524;50.938;11.396;2022-08-21T01:46:31;11.70;;;8.10;;
73296;SDS011;61524;50.938;11.396;2022-08-21T01:48:57;10.85;;;7.28;;
73296;SDS011;61524;50.938;11.396;2022-08-21T01:51:22;11.35;;;7.20;;
73296;SDS011;61524;50.938;11.396;2022-08-21T01:53:48;10.80;;;6.80;;
73296;SDS011;61524;50.938;11.396;2022-08-21T01:56:14;12.68;;;6.93;;
73296;SDS011;61524;50.938;11.396;2022-08-21T01:58:42;13.48;;;6.47;;
73296;SDS011;61524;50.938;11.396;2022-08-21T02:01:09;14.93;;;7.47;;
73296;SDS011;61524;50.938;11.396;2022-08-21T02:03:35;10.63;;;7.28;;
73296;SDS011;61524;50.938;11.396;2022-08-21T02:06:02;11.23;;;7.30;;
73296;SDS011;61524;50.938;11.396;2022-08-21T02:08:29;11.48;;;7.85;;
73296;SDS011;61524;50.938;11.396;2022-08-21T02:13:21;12.90;;;7.97;;
73296;SDS011;61524;50.938;11.396;2022-08-21T02:15:47;11.13;;;7.28;;
73296;SDS011;61524;50.938;11.396;2022-08-21T02:18:12;11.27;;;7.28;;
73296;SDS011;61524;50.938;11.396;2022-08-21T02:20:39;11.38;;;7.22;;
73296;SDS011;61524;50.938;11.396;2022-08-21T02:23:07;11.45;;;7.32;;
73296;SDS011;61524;50.938;11.396;2022-08-21T02:25:34;12.23;;;7.78;;
73296;SDS011;61524;50.938;11.396;2022-08-21T02:28:02;11.90;;;7.85;;
73296;SDS011;61524;50.938;11.396;2022-08-21T02:30:31;12.88;;;8.13;;
73296;SDS011;61524;50.938;11.396;2022-08-21T02:33:00;12.75;;;7.63;;
73296;SDS011;61524;50.938;11.396;2022-08-21T02:35:26;11.25;;;7.38;;
73296;SDS011;61524;50.938;11.396;2022-08-21T02:37:53;12.18;;;7.85;;
73296;SDS011;61524;50.938;11.396;2022-08-21T02:40:22;11.18;;;7.47;;
73296;SDS011;61524;50.938;11.396;2022-08-21T02:42:51;11.48;;;7.65;;
73296;SDS011;61524;50.938;11.396;2022-08-21T02:45:16;12.73;;;7.47;;
73296;SDS011;61524;50.938;11.396;2022-08-21T02:50:17;9.68;;;6.07;;
73296;SDS011;61524;50.938;11.396;2022-08-21T02:52:44;11.30;;;7.50;;
73296;SDS011;61524;50.938;11.396;2022-08-21T02:55:10;10.55;;;7.18;;
73296;SDS011;61524;50.938;11.396;2022-08-21T02:57:36;11.63;;;7.32;;
73296;SDS011;61524;50.938;11.396;2022-08-21T03:00:03;11.20;;;7.10;;
73296;SDS011;61524;50.938;11.396;2022-08-21T03:02:30;12.65;;;7.50;;
73296;SDS011;61524;50.938;11.396;2022-08-21T03:04:55;12.50;;;7.38;;
73296;SDS011;61524;50.938;11.396;2022-08-21T03:07:21;14.48;;;8.05;;
73296;SDS011;61524;50.938;11.396;2022-08-21T03:09:47;11.90;;;7.80;;
73296;SDS011;61524;50.938;11.396;2022-08-21T03:12:12;12.38;;;7.68;;
73296;SDS011;61524;50.938;11.396;2022-08-21T03:14:38;11.18;;;7.38;;
73296;SDS011;61524;50.938;11.396;2022-08-21T03:17:03;10.43;;;6.68;;
73296;SDS011;61524;50.938;11.396;2022-08-21T03:19:29;10.80;;;7.40;;
73296;SDS011;61524;50.938;11.396;2022-08-21T03:21:55;13.73;;;7.65;;
73296;SDS011;61524;50.938;11.396;2022-08-21T03:24:20;12.50;;;8.30;;
73296;SDS011;61524;50.938;11.396;2022-08-21T03:26:46;14.80;;;8.93;;
73296;SDS011;61524;50.938;11.396;2022-08-21T03:29:11;16.90;;;10.07;;
73296;SDS011;61524;50.938;11.396;2022-08-21T03:31:36;15.25;;;9.23;;
73296;SDS011;61524;50.938;11.396;2022-08-21T03:34:02;21.20;;;10.50;;
73296;SDS011;61524;50.938;11.396;2022-08-21T03:36:28;17.90;;;10.40;;
73296;SDS011;61524;50.938;11.396;2022-08-21T03:38:54;17.08;;;10.15;;
73296;SDS011;61524;50.938;11.396;2022-08-21T03:41:19;18.48;;;10.80;;
73296;SDS011;61524;50.938;11.396;2022-08-21T03:43:45;17.50;;;10.50;;
73296;SDS011;61524;50.938;11.396;2022-08-21T03:46:10;16.27;;;10.90;;
73296;SDS011;61524;50.938;11.396;2022-08-21T03:48:36;17.25;;;10.15;;
73296;SDS011;61524;50.938;11.396;2022-08-21T03:51:02;17.90;;;10.77;;
73296;SDS011;61524;50.938;11.396;2022-08-21T03:53:28;17.10;;;9.40;;
73296;SDS011;61524;50.938;11.396;2022-08-21T03:55:55;15.60;;;9.40;;
73296;SDS011;61524;50.938;11.396;2022-08-21T03:58:22;15.10;;;9.40;;
73296;SDS011;61524;50.938;11.396;2022-08-21T04:00:51;16.98;;;10.00;;
73296;SDS011;61524;50.938;11.396;2022-08-21T04:03:19;14.32;;;9.20;;
73296;SDS011;61524;50.938;11.396;2022-08-21T04:05:45;15.13;;;9.38;;
73296;SDS011;61524;50.938;11.396;2022-08-21T04:08:11;15.68;;;9.38;;
73296;SDS011;61524;50.938;11.396;2022-08-21T04:10:37;14.95;;;9.48;;
73296;SDS011;61524;50.938;11.396;2022-08-21T04:15:30;13.02;;;8.23;;
73296;SDS011;61524;50.938;11.396;2022-08-21T04:17:55;17.65;;;10.15;;
73296;SDS011;61524;50.938;11.396;2022-08-21T04:20:21;15.00;;;9.20;;
73296;SDS011;61524;50.938;11.396;2022-08-21T04:22:47;15.63;;;9.48;;
73296;SDS011;61524;50.938;11.396;2022-08-21T04:25:13;14.93;;;9.55;;
73296;SDS011;61524;50.938;11.396;2022-08-21T04:27:40;17.77;;;10.07;;
73296;SDS011;61524;50.938;11.396;2022-08-21T04:30:06;16.08;;;9.57;;
73296;SDS011;61524;50.938;11.396;2022-08-21T04:32:34;14.90;;;9.48;;
73296;SDS011;61524;50.938;11.396;2022-08-21T04:35:00;18.40;;;10.88;;
73296;SDS011;61524;50.938;11.396;2022-08-21T04:37:30;18.20;;;10.70;;
73296;SDS011;61524;50.938;11.396;2022-08-21T04:39:56;18.25;;;10.68;;
73296;SDS011;61524;50.938;11.396;2022-08-21T04:42:25;18.67;;;11.27;;
73296;SDS011;61524;50.938;11.396;2022-08-21T04:44:53;18.20;;;11.82;;
73296;SDS011;61524;50.938;11.396;2022-08-21T04:47:20;17.13;;;10.95;;
73296;SDS011;61524;50.938;11.396;2022-08-21T04:49:45;18.13;;;10.43;;
73296;SDS011;61524;50.938;11.396;2022-08-21T04:52:11;15.27;;;9.77;;
73296;SDS011;61524;50.938;11.396;2022-08-21T04:54:41;18.67;;;10.25;;
73296;SDS011;61524;50.938;11.396;2022-08-21T04:57:10;19.90;;;11.60;;
73296;SDS011;61524;50.938;11.396;2022-08-21T04:59:40;19.02;;;10.50;;
73296;SDS011;61524;50.938;11.396;2022-08-21T05:02:12;18.55;;;11.55;;
73296;SDS011;61524;50.938;11.396;2022-08-21T05:04:43;21.38;;;11.10;;
73296;SDS011;61524;50.938;11.396;2022-08-21T05:09:38;17.17;;;10.70;;
73296;SDS011;61524;50.938;11.396;2022-08-21T05:12:04;15.93;;;9.82;;
73296;SDS011;61524;50.938;11.396;2022-08-21T05:14:30;18.63;;;10.95;;
73296;SDS011;61524;50.938;11.396;2022-08-21T05:16:56;18.20;;;10.68;;
73296;SDS011;61524;50.938;11.396;2022-08-21T05:19:21;17.65;;;9.95;;
73296;SDS011;61524;50.938;11.396;2022-08-21T05:21:47;18.55;;;10.82;;
73296;SDS011;61524;50.938;11.396;2022-08-21T05:24:13;20.98;;;10.55;;
73296;SDS011;61524;50.938;11.396;2022-08-21T05:26:39;15.77;;;9.75;;
73296;SDS011;61524;50.938;11.396;2022-08-21T05:29:04;17.98;;;9.93;;
73296;SDS011;61524;50.938;11.396;2022-08-21T05:31:30;17.52;;;11.30;;
73296;SDS011;61524;50.938;11.396;2022-08-21T05:33:55;17.25;;;10.50;;
73296;SDS011;61524;50.938;11.396;2022-08-21T05:36:21;19.00;;;11.68;;
73296;SDS011;61524;50.938;11.396;2022-08-21T05:38:47;17.05;;;11.48;;
73296;SDS011;61524;50.938;11.396;2022-08-21T05:41:12;19.17;;;11.10;;
73296;SDS011;61524;50.938;11.396;2022-08-21T05:43:38;24.73;;;12.40;;
73296;SDS011;61524;50.938;11.396;2022-08-21T05:46:04;20.40;;;11.82;;
73296;SDS011;61524;50.938;11.396;2022-08-21T05:48:31;21.65;;;12.70;;
73296;SDS011;61524;50.938;11.396;2022-08-21T05:50:57;23.55;;;12.27;;
73296;SDS011;61524;50.938;11.396;2022-08-21T05:53:23;23.63;;;12.68;;
73296;SDS011;61524;50.938;11.396;2022-08-21T05:55:50;20.30;;;12.00;;
73296;SDS011;61524;50.938;11.396;2022-08-21T05:58:17;23.20;;;11.95;;
73296;SDS011;61524;50.938;11.396;2022-08-21T06:00:45;19.58;;;11.98;;
73296;SDS011;61524;50.938;11.396;2022-08-21T06:03:13;21.63;;;11.88;;
73296;SDS011;61524;50.938;11.396;2022-08-21T06:05:47;21.40;;;11.40;;
73296;SDS011;61524;50.938;11.396;2022-08-21T06:08:13;17.60;;;10.73;;
73296;SDS011;61524;50.938;11.396;2022-08-21T06:10:39;17.63;;;11.27;;
73296;SDS011;61524;50.938;11.396;2022-08-21T06:13:05;20.08;;;12.52;;
73296;SDS011;61524;50.938;11.396;2022-08-21T06:15:31;19.08;;;10.68;;
73296;SDS011;61524;50.938;11.396;2022-08-21T06:17:56;15.32;;;10.27;;
73296;SDS011;61524;50.938;11.396;2022-08-21T06:20:22;16.27;;;10.13;;
73296;SDS011;61524;50.938;11.396;2022-08-21T06:22:48;15.07;;;9.40;;
73296;SDS011;61524;50.938;11.396;2022-08-21T06:25:13;14.02;;;9.60;;
73296;SDS011;61524;50.938;11.396;2022-08-21T06:27:39;13.27;;;9.73;;
73296;SDS011;61524;50.938;11.396;2022-08-21T06:30:05;12.50;;;8.60;;
73296;SDS011;61524;50.938;11.396;2022-08-21T06:32:31;14.15;;;8.68;;
73296;SDS011;61524;50.938;11.396;2022-08-21T06:34:57;13.60;;;9.10;;
73296;SDS011;61524;50.938;11.396;2022-08-21T06:37:22;14.63;;;9.60;;
73296;SDS011;61524;50.938;11.396;2022-08-21T06:39:48;12.90;;;9.43;;
73296;SDS011;61524;50.938;11.396;2022-08-21T06:42:16;12.40;;;8.82;;
73296;SDS011;61524;50.938;11.396;2022-08-21T06:44:43;11.65;;;8.68;;
73296;SDS011;61524;50.938;11.396;2022-08-21T06:47:09;11.40;;;8.52;;
73296;SDS011;61524;50.938;11.396;2022-08-21T06:49:35;10.68;;;7.57;;
73296;SDS011;61524;50.938;11.396;2022-08-21T06:52:01;11.15;;;7.97;;
73296;SDS011;61524;50.938;11.396;2022-08-21T06:54:27;11.27;;;8.45;;
73296;SDS011;61524;50.938;11.396;2022-08-21T06:56:52;10.57;;;7.68;;
73296;SDS011;61524;50.938;11.396;2022-08-21T06:59:18;10.63;;;7.85;;
73296;SDS011;61524;50.938;11.396;2022-08-21T07:01:43;10.75;;;8.18;;
73296;SDS011;61524;50.938;11.396;2022-08-21T07:04:09;11.18;;;7.68;;
73296;SDS011;61524;50.938;11.396;2022-08-21T07:06:35;10.32;;;7.60;;
73296;SDS011;61524;50.938;11.396;2022-08-21T07:09:01;10.90;;;7.35;;
73296;SDS011;61524;50.938;11.396;2022-08-21T07:11:28;11.65;;;7.28;;
73296;SDS011;61524;50.938;11.396;2022-08-21T07:13:53;10.38;;;7.53;;
73296;SDS011;61524;50.938;11.396;2022-08-21T07:16:21;11.23;;;8.27;;
73296;SDS011;61524;50.938;11.396;2022-08-21T07:18:47;10.15;;;7.32;;
73296;SDS011;61524;50.938;11.396;2022-08-21T07:21:13;11.40;;;6.90;;
73296;SDS011;61524;50.938;11.396;2022-08-21T07:23:40;9.73;;;7.13;;
73296;SDS011;61524;50.938;11.396;2022-08-21T07:26:09;11.25;;;7.90;;
73296;SDS011;61524;50.938;11.396;2022-08-21T07:28:36;8.93;;;5.72;;
73296;SDS011;61524;50.938;11.396;2022-08-21T07:31:01;9.57;;;6.53;;
73296;SDS011;61524;50.938;11.396;2022-08-21T07:33:28;9.65;;;5.50;;
73296;SDS011;61524;50.938;11.396;2022-08-21T07:35:56;11.35;;;6.43;;
73296;SDS011;61524;50.938;11.396;2022-08-21T07:38:23;8.52;;;5.10;;
73296;SDS011;61524;50.938;11.396;2022-08-21T07:40:49;7.85;;;4.45;;
73296;SDS011;61524;50.938;11.396;2022-08-21T07:43:17;7.97;;;5.45;;
73296;SDS011;61524;50.938;11.396;2022-08-21T07:45:43;7.20;;;4.45;;
73296;SDS011;61524;50.938;11.396;2022-08-21T07:50:35;5.97;;;3.30;;
73296;SDS011;61524;50.938;11.396;2022-08-21T07:53:00;7.25;;;3.40;;
73296;SDS011;61524;50.938;11.396;2022-08-21T07:55:26;6.13;;;3.30;;
73296;SDS011;61524;50.938;11.396;2022-08-21T07:57:51;6.85;;;3.72;;
73296;SDS011;61524;50.938;11.396;2022-08-21T08:00:18;6.63;;;3.60;;
73296;SDS011;61524;50.938;11.396;2022-08-21T08:02:46;6.60;;;3.25;;
73296;SDS011;61524;50.938;11.396;2022-08-21T08:05:17;5.03;;;2.80;;
73296;SDS011;61524;50.938;11.396;2022-08-21T08:07:45;5.65;;;3.08;;
73296;SDS011;61524;50.938;11.396;2022-08-21T08:10:10;6.55;;;2.65;;
73296;SDS011;61524;50.938;11.396;2022-08-21T08:12:37;5.03;;;2.65;;
73296;SDS011;61524;50.938;11.396;2022-08-21T08:15:05;6.07;;;2.58;;
73296;SDS011;61524;50.938;11.396;2022-08-21T08:17:32;7.93;;;3.53;;
73296;SDS011;61524;50.938;11.396;2022-08-21T08:19:58;6.38;;;3.20;;
73296;SDS011;61524;50.938;11.396;2022-08-21T08:22:26;5.78;;;2.42;;
73296;SDS011;61524;50.938;11.396;2022-08-21T08:24:51;5.78;;;2.72;;
73296;SDS011;61524;50.938;11.396;2022-08-21T08:27:17;5.45;;;2.55;;
73296;SDS011;61524;50.938;11.396;2022-08-21T08:29:43;4.57;;;2.47;;
73296;SDS011;61524;50.938;11.396;2022-08-21T08:32:09;9.50;;;2.78;;
73296;SDS011;61524;50.938;11.396;2022-08-21T08:34:36;7.30;;;2.65;;
73296;SDS011;61524;50.938;11.396;2022-08-21T08:37:02;4.88;;;2.33;;
73296;SDS011;61524;50.938;11.396;2022-08-21T08:39:29;5.07;;;2.95;;
73296;SDS011;61524;50.938;11.396;2022-08-21T08:42:06;6.50;;;3.13;;
73296;SDS011;61524;50.938;11.396;2022-08-21T08:44:32;5.75;;;2.47;;
73296;SDS011;61524;50.938;11.396;2022-08-21T08:46:59;6.70;;;2.55;;
73296;SDS011;61524;50.938;11.396;2022-08-21T08:51:56;4.38;;;2.53;;
73296;SDS011;61524;50.938;11.396;2022-08-21T08:54:45;9.48;;;2.72;;
73296;SDS011;61524;50.938;11.396;2022-08-21T08:57:18;7.07;;;3.20;;
73296;SDS011;61524;50.938;11.396;2022-08-21T08:59:48;4.38;;;2.30;;
73296;SDS011;61524;50.938;11.396;2022-08-21T09:02:16;5.63;;;2.65;;
73296;SDS011;61524;50.938;11.396;2022-08-21T09:04:42;6.97;;;2.30;;
73296;SDS011;61524;50.938;11.396;2022-08-21T09:12:30;5.38;;;2.40;;
73296;SDS011;61524;50.938;11.396;2022-08-21T09:28:37;4.80;;;2.53;;
73296;SDS011;61524;50.938;11.396;2022-08-21T09:31:08;5.90;;;2.78;;
73296;SDS011;61524;50.938;11.396;2022-08-21T09:34:00;6.47;;;2.85;;
73296;SDS011;61524;50.938;11.396;2022-08-21T09:39:13;4.43;;;2.42;;
73296;SDS011;61524;50.938;11.396;2022-08-21T09:41:54;6.15;;;2.80;;
73296;SDS011;61524;50.938;11.396;2022-08-21T09:44:26;5.25;;;2.75;;
73296;SDS011;61524;50.938;11.396;2022-08-21T09:46:55;5.25;;;2.60;;
73296;SDS011;61524;50.938;11.396;2022-08-21T09:49:34;4.40;;;2.80;;
73296;SDS011;61524;50.938;11.396;2022-08-21T09:52:02;6.30;;;2.90;;
73296;SDS011;61524;50.938;11.396;2022-08-21T09:54:33;4.35;;;2.83;;
73296;SDS011;61524;50.938;11.396;2022-08-21T09:59:52;5.63;;;3.05;;
73296;SDS011;61524;50.938;11.396;2022-08-21T10:02:31;5.00;;;2.75;;
73296;SDS011;61524;50.938;11.396;2022-08-21T10:05:15;5.18;;;2.80;;
73296;SDS011;61524;50.938;11.396;2022-08-21T10:07:48;6.72;;;2.45;;
73296;SDS011;61524;50.938;11.396;2022-08-21T10:10:16;5.93;;;2.70;;
73296;SDS011;61524;50.938;11.396;2022-08-21T10:13:08;6.60;;;2.70;;
73296;SDS011;61524;50.938;11.396;2022-08-21T10:25:58;3.78;;;2.50;;
73296;SDS011;61524;50.938;11.396;2022-08-21T10:28:34;5.68;;;2.47;;
73296;SDS011;61524;50.938;11.396;2022-08-21T10:33:42;6.97;;;2.63;;
73296;SDS011;61524;50.938;11.396;2022-08-21T10:42:05;4.70;;;2.60;;
73296;SDS011;61524;50.938;11.396;2022-08-21T10:47:34;5.60;;;2.47;;
73296;SDS011;61524;50.938;11.396;2022-08-21T10:50:06;4.78;;;2.72;;
73296;SDS011;61524;50.938;11.396;2022-08-21T10:55:22;5.38;;;2.53;;
73296;SDS011;61524;50.938;11.396;2022-08-21T11:03:27;5.15;;;2.40;;
73296;SDS011;61524;50.938;11.396;2022-08-21T11:06:07;6.65;;;2.65;;
73296;SDS011;61524;50.938;11.396;2022-08-21T11:08:41;5.38;;;2.60;;
73296;SDS011;61524;50.938;11.396;2022-08-21T11:11:12;5.07;;;2.40;;
73296;SDS011;61524;50.938;11.396;2022-08-21T11:13:55;5.93;;;2.50;;
73296;SDS011;61524;50.938;11.396;2022-08-21T11:19:28;4.35;;;2.38;;
73296;SDS011;61524;50.938;11.396;2022-08-21T11:22:00;5.40;;;2.90;;
73296;SDS011;61524;50.938;11.396;2022-08-21T11:27:58;5.05;;;2.17;;
73296;SDS011;61524;50.938;11.396;2022-08-21T11:30:39;6.30;;;2.30;;
73296;SDS011;61524;50.938;11.396;2022-08-21T11:36:51;6.35;;;2.75;;
73296;SDS011;61524;50.938;11.396;2022-08-21T11:39:15;4.45;;;2.25;;
73296;SDS011;61524;50.938;11.396;2022-08-21T11:41:56;4.82;;;2.22;;
73296;SDS011;61524;50.938;11.396;2022-08-21T11:50:17;7.65;;;2.40;;
73296;SDS011;61524;50.938;11.396;2022-08-21T11:52:53;4.38;;;2.30;;
73296;SDS011;61524;50.938;11.396;2022-08-21T11:55:32;5.35;;;2.47;;
73296;SDS011;61524;50.938;11.396;2022-08-21T11:58:09;3.85;;;2.25;;
73296;SDS011;61524;50.938;11.396;2022-08-21T12:03:11;5.75;;;2.42;;
73296;SDS011;61524;50.938;11.396;2022-08-21T12:05:43;5.47;;;2.45;;
73296;SDS011;61524;50.938;11.396;2022-08-21T12:08:31;4.47;;;2.60;;
73296;SDS011;61524;50.938;11.396;2022-08-21T12:11:09;6.75;;;2.20;;
73296;SDS011;61524;50.938;11.396;2022-08-21T12:14:11;4.30;;;2.30;;
73296;SDS011;61524;50.938;11.396;2022-08-21T12:16:42;5.55;;;2.47;;
73296;SDS011;61524;50.938;11.396;2022-08-21T12:19:13;5.22;;;2.55;;
73296;SDS011;61524;50.938;11.396;2022-08-21T12:24:31;4.82;;;2.63;;
73296;SDS011;61524;50.938;11.396;2022-08-21T12:27:13;8.88;;;2.70;;
73296;SDS011;61524;50.938;11.396;2022-08-21T12:29:50;4.35;;;2.30;;
73296;SDS011;61524;50.938;11.396;2022-08-21T12:32:26;5.13;;;2.30;;
73296;SDS011;61524;50.938;11.396;2022-08-21T12:35:13;5.03;;;2.22;;
73296;SDS011;61524;50.938;11.396;2022-08-21T12:37:47;4.93;;;2.60;;
73296;SDS011;61524;50.938;11.396;2022-08-21T12:40:25;4.22;;;2.35;;
73296;SDS011;61524;50.938;11.396;2022-08-21T12:42:57;4.82;;;2.45;;
73296;SDS011;61524;50.938;11.396;2022-08-21T12:50:55;4.00;;;2.30;;
73296;SDS011;61524;50.938;11.396;2022-08-21T12:53:37;4.93;;;2.55;;
73296;SDS011;61524;50.938;11.396;2022-08-21T12:56:14;7.90;;;3.10;;
73296;SDS011;61524;50.938;11.396;2022-08-21T12:58:50;4.90;;;2.50;;
73296;SDS011;61524;50.938;11.396;2022-08-21T13:03:54;5.50;;;2.58;;
73296;SDS011;61524;50.938;11.396;2022-08-21T13:06:22;4.55;;;2.10;;
73296;SDS011;61524;50.938;11.396;2022-08-21T13:08:50;5.03;;;2.47;;
73296;SDS011;61524;50.938;11.396;2022-08-21T13:11:22;4.72;;;2.30;;
73296;SDS011;61524;50.938;11.396;2022-08-21T13:13:49;5.47;;;2.65;;
73296;SDS011;61524;50.938;11.396;2022-08-21T13:16:22;4.97;;;2.25;;
73296;SDS011;61524;50.938;11.396;2022-08-21T13:18:55;3.85;;;2.25;;
73296;SDS011;61524;50.938;11.396;2022-08-21T13:21:27;4.30;;;2.25;;
73296;SDS011;61524;50.938;11.396;2022-08-21T13:26:39;4.03;;;2.15;;
73296;SDS011;61524;50.938;11.396;2022-08-21T13:29:09;4.78;;;2.42;;
73296;SDS011;61524;50.938;11.396;2022-08-21T13:31:36;5.45;;;2.28;;
73296;SDS011;61524;50.938;11.396;2022-08-21T13:34:07;5.05;;;2.05;;
73296;SDS011;61524;50.938;11.396;2022-08-21T13:36:36;4.50;;;2.30;;
73296;SDS011;61524;50.938;11.396;2022-08-21T13:39:05;5.25;;;2.22;;
73296;SDS011;61524;50.938;11.396;2022-08-21T13:41:36;4.63;;;2.03;;
73296;SDS011;61524;50.938;11.396;2022-08-21T13:44:05;5.20;;;2.20;;
73296;SDS011;61524;50.938;11.396;2022-08-21T13:46:57;4.25;;;2.00;;
73296;SDS011;61524;50.938;11.396;2022-08-21T13:49:26;4.57;;;2.30;;
73296;SDS011;61524;50.938;11.396;2022-08-21T13:51:56;5.10;;;2.30;;
73296;SDS011;61524;50.938;11.396;2022-08-21T13:54:23;4.82;;;2.50;;
73296;SDS011;61524;50.938;11.396;2022-08-21T13:56:58;5.40;;;2.33;;
73296;SDS011;61524;50.938;11.396;2022-08-21T13:59:25;6.72;;;2.47;;
73296;SDS011;61524;50.938;11.396;2022-08-21T14:02:02;4.28;;;2.67;;
73296;SDS011;61524;50.938;11.396;2022-08-21T14:04:52;4.25;;;2.38;;
73296;SDS011;61524;50.938;11.396;2022-08-21T14:07:26;4.50;;;2.20;;
73296;SDS011;61524;50.938;11.396;2022-08-21T14:10:02;5.53;;;2.58;;
73296;SDS011;61524;50.938;11.396;2022-08-21T14:13:01;5.90;;;2.67;;
73296;SDS011;61524;50.938;11.396;2022-08-21T14:15:30;6.18;;;2.30;;
73296;SDS011;61524;50.938;11.396;2022-08-21T14:18:13;6.25;;;2.40;;
73296;SDS011;61524;50.938;11.396;2022-08-21T14:20:40;5.35;;;2.40;;
73296;SDS011;61524;50.938;11.396;2022-08-21T14:23:06;4.78;;;2.50;;
73296;SDS011;61524;50.938;11.396;2022-08-21T14:25:39;4.40;;;2.42;;
73296;SDS011;61524;50.938;11.396;2022-08-21T14:30:41;5.65;;;2.58;;
73296;SDS011;61524;50.938;11.396;2022-08-21T14:33:09;4.45;;;2.25;;
73296;SDS011;61524;50.938;11.396;2022-08-21T14:35:36;4.90;;;2.20;;
73296;SDS011;61524;50.938;11.396;2022-08-21T14:38:10;6.72;;;2.38;;
73296;SDS011;61524;50.938;11.396;2022-08-21T14:40:37;4.72;;;2.15;;
73296;SDS011;61524;50.938;11.396;2022-08-21T14:43:02;5.57;;;2.08;;
73296;SDS011;61524;50.938;11.396;2022-08-21T14:45:29;5.43;;;2.60;;
73296;SDS011;61524;50.938;11.396;2022-08-21T14:47:56;4.53;;;2.08;;
73296;SDS011;61524;50.938;11.396;2022-08-21T14:50:23;10.35;;;2.30;;
73296;SDS011;61524;50.938;11.396;2022-08-21T14:52:48;4.25;;;2.22;;
73296;SDS011;61524;50.938;11.396;2022-08-21T14:55:15;4.47;;;2.22;;
73296;SDS011;61524;50.938;11.396;2022-08-21T14:57:42;6.40;;;2.30;;
73296;SDS011;61524;50.938;11.396;2022-08-21T15:00:12;4.97;;;2.40;;
73296;SDS011;61524;50.938;11.396;2022-08-21T15:02:41;4.18;;;2.30;;
73296;SDS011;61524;50.938;11.396;2022-08-21T15:05:07;4.25;;;2.40;;
73296;SDS011;61524;50.938;11.396;2022-08-21T15:07:33;4.43;;;2.42;;
73296;SDS011;61524;50.938;11.396;2022-08-21T15:09:59;3.55;;;2.17;;
73296;SDS011;61524;50.938;11.396;2022-08-21T15:12:24;3.63;;;2.05;;
73296;SDS011;61524;50.938;11.396;2022-08-21T15:14:50;7.10;;;2.38;;
73296;SDS011;61524;50.938;11.396;2022-08-21T15:17:16;5.38;;;2.30;;
73296;SDS011;61524;50.938;11.396;2022-08-21T15:19:42;5.78;;;2.00;;
73296;SDS011;61524;50.938;11.396;2022-08-21T15:22:07;3.97;;;2.30;;
73296;SDS011;61524;50.938;11.396;2022-08-21T15:24:33;5.57;;;2.10;;
73296;SDS011;61524;50.938;11.396;2022-08-21T15:27:00;5.15;;;2.22;;
73296;SDS011;61524;50.938;11.396;2022-08-21T15:29:28;4.35;;;2.08;;
73296;SDS011;61524;50.938;11.396;2022-08-21T15:31:59;6.00;;;2.22;;
73296;SDS011;61524;50.938;11.396;2022-08-21T15:34:39;4.63;;;2.10;;
73296;SDS011;61524;50.938;11.396;2022-08-21T15:37:05;6.88;;;2.13;;
73296;SDS011;61524;50.938;11.396;2022-08-21T15:39:32;5.35;;;2.10;;
73296;SDS011;61524;50.938;11.396;2022-08-21T15:41:59;5.78;;;2.20;;
73296;SDS011;61524;50.938;11.396;2022-08-21T15:44:25;5.00;;;2.08;;
73296;SDS011;61524;50.938;11.396;2022-08-21T15:46:52;5.75;;;2.53;;
73296;SDS011;61524;50.938;11.396;2022-08-21T15:49:17;4.88;;;2.20;;
73296;SDS011;61524;50.938;11.396;2022-08-21T15:51:43;6.20;;;1.95;;
73296;SDS011;61524;50.938;11.396;2022-08-21T15:54:09;4.22;;;2.05;;
73296;SDS011;61524;50.938;11.396;2022-08-21T15:56:36;3.70;;;2.00;;
73296;SDS011;61524;50.938;11.396;2022-08-21T15:59:04;5.10;;;2.25;;
73296;SDS011;61524;50.938;11.396;2022-08-21T16:01:33;4.22;;;1.80;;
73296;SDS011;61524;50.938;11.396;2022-08-21T16:04:01;4.45;;;2.08;;
73296;SDS011;61524;50.938;11.396;2022-08-21T16:06:28;4.70;;;2.00;;
73296;SDS011;61524;50.938;11.396;2022-08-21T16:08:53;4.45;;;2.17;;
73296;SDS011;61524;50.938;11.396;2022-08-21T16:11:19;4.60;;;2.03;;
73296;SDS011;61524;50.938;11.396;2022-08-21T16:13:44;5.32;;;2.03;;
73296;SDS011;61524;50.938;11.396;2022-08-21T16:16:16;4.80;;;2.13;;
73296;SDS011;61524;50.938;11.396;2022-08-21T16:18:43;4.00;;;2.13;;
73296;SDS011;61524;50.938;11.396;2022-08-21T16:21:10;4.25;;;1.90;;
73296;SDS011;61524;50.938;11.396;2022-08-21T16:23:35;5.47;;;1.80;;
73296;SDS011;61524;50.938;11.396;2022-08-21T16:26:03;4.85;;;2.05;;
73296;SDS011;61524;50.938;11.396;2022-08-21T16:28:30;6.38;;;2.22;;